Time;durP1;ratioP1;P1;durP2;ratioP2;P2;SDS_P1;SDS_P2;PMS_P1;PMS_P2;Temp;Humidity;BMP_temperature;BMP_pressure;BME280_temperature;BME280_humidity;BME280_pressure;Samples;Min_cycle;Max_cycle;Signal;HPM_P1;HPM_P2
2022/12/26 00:01:11;;;;;;;54.37;26.07;;;;;;;-145.18;100.00;46693.59;5033040;28;20059;-72
2022/12/26 00:03:37;;;;;;;54.23;25.67;;;;;;;-145.18;100.00;46691.66;5050506;28;20037;-72
2022/12/26 00:06:03;;;;;;;54.47;27.23;;;;;;;-145.18;100.00;46693.59;5051748;28;20048;-72
2022/12/26 00:08:28;;;;;;;59.90;28.07;;;;;;;-145.18;100.00;46697.50;5051972;28;20397;-72
2022/12/26 00:10:53;;;;;;;52.37;26.40;;;;;;;-145.18;100.00;46701.41;5051540;28;20033;-72
2022/12/26 00:13:19;;;;;;;50.87;25.00;;;;;;;-145.18;100.00;46699.47;5032749;28;20037;-72
2022/12/26 00:15:44;;;;;;;52.87;25.67;;;;;;;-145.18;100.00;46691.66;5032041;28;20125;-72
2022/12/26 00:18:10;;;;;;;52.67;27.60;;;;;;;-145.18;100.00;46699.47;5031429;28;20037;-72
2022/12/26 00:20:35;;;;;;;60.83;26.07;;;;;;;-145.18;100.00;46687.75;5047794;28;20508;-72
2022/12/26 00:23:00;;;;;;;58.97;27.47;;;;;;;-145.18;100.00;46697.50;5049144;28;20025;-72
2022/12/26 00:25:26;;;;;;;67.63;29.43;;;;;;;-145.18;100.00;46691.66;5031968;28;20029;-72
2022/12/26 00:27:52;;;;;;;61.47;29.00;;;;;;;-145.18;100.00;46695.56;5031831;28;20033;-72
2022/12/26 00:30:17;;;;;;;61.30;29.73;;;;;;;-145.18;100.00;46693.59;5031530;28;20080;-73
2022/12/26 00:32:42;;;;;;;66.30;31.23;;;;;;;-145.18;100.00;46685.78;5031560;28;20033;-72
2022/12/26 00:35:08;;;;;;;67.53;31.27;;;;;;;-145.18;100.00;46697.50;5033953;28;20040;-72
2022/12/26 00:37:34;;;;;;;65.70;31.97;;;;;;;-145.18;100.00;46693.59;5050843;28;20032;-72
2022/12/26 00:39:59;;;;;;;66.63;33.40;;;;;;;-145.18;100.00;46695.56;5050734;28;20028;-72
2022/12/26 00:42:24;;;;;;;68.13;32.07;;;;;;;-145.18;100.00;46703.38;5051343;28;20445;-72
2022/12/26 00:44:50;;;;;;;60.33;31.33;;;;;;;-145.18;100.00;46703.38;5051486;28;20025;-72
2022/12/26 00:47:15;;;;;;;60.03;30.97;;;;;;;-145.18;100.00;46699.47;5030906;28;20040;-72
2022/12/26 00:49:41;;;;;;;57.67;31.00;;;;;;;-145.18;100.00;46699.47;5031108;28;20045;-72
2022/12/26 00:52:06;;;;;;;57.67;32.40;;;;;;;-145.18;100.00;46689.69;5030786;28;20128;-72
2022/12/26 00:54:31;;;;;;;54.80;28.90;;;;;;;-145.18;100.00;46695.56;5031370;28;20034;-72
2022/12/26 00:56:57;;;;;;;50.90;29.03;;;;;;;-145.18;100.00;46695.56;5013111;28;20490;-72
2022/12/26 00:59:22;;;;;;;51.07;28.20;;;;;;;-145.18;100.00;46693.59;5033236;28;20025;-72
2022/12/26 01:01:49;;;;;;;51.80;29.50;;;;;;;-145.18;100.00;46693.59;5030727;28;20387;-72
2022/12/26 01:04:14;;;;;;;47.63;27.87;;;;;;;-145.18;100.00;46709.22;5013531;28;20040;-72
2022/12/26 01:06:39;;;;;;;49.33;27.73;;;;;;;-145.18;100.00;46693.59;5030833;28;20029;-72
2022/12/26 01:09:05;;;;;;;51.50;28.83;;;;;;;-145.18;100.00;46697.50;5030977;28;20061;-72
2022/12/26 01:11:39;;;;;;;54.07;29.37;;;;;;;-145.18;100.00;46703.38;5030707;28;20045;-73
2022/12/26 01:14:10;;;;;;;56.70;28.00;;;;;;;-145.18;100.00;46695.56;5030579;28;20473;-73
2022/12/26 01:16:37;;;;;;;51.47;27.97;;;;;;;-145.18;100.00;46699.47;5030903;28;20021;-73
2022/12/26 01:19:02;;;;;;;45.63;28.10;;;;;;;-145.18;100.00;46689.69;5030668;28;20112;-73
2022/12/26 01:21:28;;;;;;;48.50;27.80;;;;;;;-145.18;100.00;46695.56;5012449;28;20479;-73
2022/12/26 01:23:54;;;;;;;49.87;27.97;;;;;;;-145.18;100.00;46699.47;5037384;28;20056;-73
2022/12/26 01:26:19;;;;;;;50.00;28.07;;;;;;;-145.18;100.00;46701.41;5050545;28;20103;-73
2022/12/26 01:28:44;;;;;;;47.93;27.10;;;;;;;-145.18;100.00;46691.66;5050154;28;20456;-73
2022/12/26 01:31:10;;;;;;;45.57;27.33;;;;;;;-145.18;100.00;46693.59;5049972;28;20036;-73
2022/12/26 01:33:35;;;;;;;46.03;27.03;;;;;;;-145.18;100.00;46701.41;5050743;28;20079;-73
2022/12/26 01:36:01;;;;;;;44.90;26.43;;;;;;;-145.18;100.00;46699.47;5037644;28;20493;-73
2022/12/26 01:38:27;;;;;;;43.10;26.57;;;;;;;-145.18;100.00;46697.50;5030353;28;20025;-73
2022/12/26 01:41:15;;;;;;;46.10;27.53;;;;;;;-145.18;100.00;46701.41;5012416;28;20465;-73
2022/12/26 01:43:52;;;;;;;43.05;25.88;;;;;;;-145.18;100.00;46693.59;5022075;28;20368;-73
2022/12/26 01:46:21;;;;;;;46.47;24.97;;;;;;;-145.18;100.00;46691.66;5035275;28;20461;-73
2022/12/26 01:48:47;;;;;;;46.17;25.80;;;;;;;-145.18;100.00;46697.50;5029784;28;20716;-73
2022/12/26 01:51:14;;;;;;;40.30;26.90;;;;;;;-145.18;100.00;46705.31;5029712;28;20033;-73
2022/12/26 01:53:48;;;;;;;39.73;25.03;;;;;;;-145.18;100.00;46689.69;5030439;28;20263;-73
2022/12/26 01:56:22;;;;;;;44.93;25.97;;;;;;;-145.18;100.00;46693.59;5029938;28;20782;-73
2022/12/26 01:58:55;;;;;;;42.83;26.17;;;;;;;-145.18;100.00;46691.66;5048760;28;20285;-73
2022/12/26 02:01:24;;;;;;;46.00;26.90;;;;;;;-145.18;100.00;46699.47;5049725;28;20344;-73
2022/12/26 02:06:36;;;;;;;49.60;26.07;;;;;;;-145.18;100.00;46699.47;5030471;28;20690;-73
2022/12/26 02:09:01;;;;;;;43.83;25.97;;;;;;;-145.18;100.00;46701.41;5034463;28;20037;-73
2022/12/26 02:11:33;;;;;;;40.10;24.60;;;;;;;-145.18;100.00;46699.47;5049328;28;20309;-73
2022/12/26 02:14:00;;;;;;;40.53;25.10;;;;;;;-145.18;100.00;46699.47;5049955;28;20044;-73
2022/12/26 02:16:26;;;;;;;42.70;25.17;;;;;;;-145.18;100.00;46695.56;5049823;28;20274;-73
2022/12/26 02:18:51;;;;;;;39.00;24.73;;;;;;;-145.18;100.00;46697.50;5050167;28;20281;-73
2022/12/26 02:21:35;;;;;;;37.27;24.23;;;;;;;-145.18;100.00;46699.47;5042696;28;20113;-74
2022/12/26 02:24:33;;;;;;;37.87;24.03;;;;;;;-145.18;100.00;46691.66;5029770;28;20064;-73
2022/12/26 02:27:27;;;;;;;38.40;23.67;;;;;;;-145.18;100.00;46699.47;5029604;28;20267;-73
2022/12/26 02:30:02;;;;;;;42.20;24.43;;;;;;;-145.18;100.00;46699.47;4979998;28;20263;-73
2022/12/26 02:32:48;;;;;;;36.30;23.58;;;;;;;-145.18;100.00;46709.22;5030690;28;20049;-73
2022/12/26 02:35:43;;;;;;;37.08;23.77;;;;;;;-145.18;100.00;46699.47;5017267;28;20033;-73
2022/12/26 02:38:36;;;;;;;41.00;24.67;;;;;;;-145.18;100.00;46707.28;5029465;28;20037;-73
2022/12/26 02:41:20;;;;;;;36.77;23.77;;;;;;;-145.18;100.00;46697.50;5029924;28;20281;-73
2022/12/26 02:47:13;;;;;;;37.33;23.97;;;;;;;-145.18;100.00;46703.38;4985844;28;20602;-73
2022/12/26 03:13:32;;;;;;;34.40;22.27;;;;;;;-145.18;100.00;46709.22;5032695;28;20269;-74
2022/12/26 03:18:52;;;;;;;31.80;20.87;;;;;;;-145.18;100.00;46703.38;5031643;28;20416;-73
2022/12/26 03:21:21;;;;;;;34.20;21.50;;;;;;;-145.18;100.00;46711.19;5033272;28;20478;-73
2022/12/26 03:23:50;;;;;;;31.17;20.33;;;;;;;-145.18;100.00;46701.41;5032345;28;20100;-73
2022/12/26 03:31:50;;;;;;;36.90;23.98;;;;;;;-145.18;100.00;46701.41;5032780;28;20373;-73
2022/12/26 03:34:16;;;;;;;37.53;24.37;;;;;;;-145.18;100.00;46711.19;5033006;28;20501;-73
2022/12/26 03:36:50;;;;;;;37.43;25.00;;;;;;;-145.18;100.00;46701.41;5032365;28;20310;-74
2022/12/26 04:20:30;;;;;;;41.90;23.43;;;;;;;-145.18;100.00;46715.09;5011943;28;20271;-72
2022/12/26 04:46:33;;;;;;;20.75;12.98;;;;;;;-145.18;100.00;46703.38;4992412;28;20369;-72
2022/12/26 04:51:46;;;;;;;19.03;11.63;;;;;;;-145.18;100.00;46701.41;5011510;28;20361;-72
2022/12/26 04:54:11;;;;;;;17.77;12.33;;;;;;;-145.18;100.00;46715.09;5011489;28;20367;-72
2022/12/26 04:56:37;;;;;;;16.93;11.73;;;;;;;-145.18;100.00;46722.91;5011296;28;20033;-72
2022/12/26 04:59:02;;;;;;;16.97;11.80;;;;;;;-145.18;100.00;46707.28;5011363;28;20097;-72
2022/12/26 05:09:52;;;;;;;18.00;12.03;;;;;;;-145.18;100.00;46711.19;4982929;28;20402;-72
2022/12/26 05:12:18;;;;;;;18.93;12.33;;;;;;;-145.18;100.00;46717.03;5011292;28;20722;-72
2022/12/26 05:14:43;;;;;;;16.97;11.73;;;;;;;-145.18;100.00;46707.28;5010931;28;20279;-72
2022/12/26 05:31:00;;;;;;;13.85;9.90;;;;;;;-145.18;100.00;46715.09;5011403;28;20663;-72
2022/12/26 05:36:12;;;;;;;14.77;9.83;;;;;;;-145.18;100.00;46711.19;5011230;28;20285;-72
2022/12/26 05:38:37;;;;;;;12.50;8.33;;;;;;;-145.18;100.00;46719.00;5010520;28;20275;-72
2022/12/26 05:41:03;;;;;;;11.87;8.27;;;;;;;-145.18;100.00;46707.28;5010999;28;20324;-72
2022/12/26 05:43:28;;;;;;;13.17;8.57;;;;;;;-145.18;100.00;46715.09;5010598;28;20029;-72
2022/12/26 05:45:54;;;;;;;13.53;8.80;;;;;;;-145.18;100.00;46713.13;5010452;28;20116;-72
2022/12/26 05:48:20;;;;;;;13.00;9.27;;;;;;;-145.18;100.00;46722.91;5010833;28;20065;-72
2022/12/26 05:50:45;;;;;;;15.00;9.47;;;;;;;-145.18;100.00;46719.00;5010685;28;20725;-72
2022/12/26 05:53:10;;;;;;;12.13;8.73;;;;;;;-145.18;100.00;46713.13;5010271;28;20133;-72
2022/12/26 05:55:36;;;;;;;12.63;8.40;;;;;;;-145.18;100.00;46715.09;5010122;28;20394;-72
2022/12/26 05:58:01;;;;;;;15.47;9.50;;;;;;;-145.18;100.00;46717.03;5003976;28;20030;-72
2022/12/26 06:00:28;;;;;;;11.90;8.03;;;;;;;-145.18;100.00;46711.19;5003769;28;20369;-72
2022/12/26 06:02:54;;;;;;;15.27;9.17;;;;;;;-145.18;100.00;46717.03;5002043;28;20552;-72
2022/12/26 06:05:20;;;;;;;16.13;8.70;;;;;;;-145.18;100.00;46719.00;5004132;28;20345;-72
2022/12/26 06:07:46;;;;;;;16.00;9.73;;;;;;;-145.18;100.00;46713.13;5000307;28;20275;-72
2022/12/26 06:10:12;;;;;;;13.70;8.17;;;;;;;-145.18;100.00;46722.91;5000788;28;20084;-72
2022/12/26 06:12:37;;;;;;;12.83;8.30;;;;;;;-145.18;100.00;46715.09;4981960;28;20117;-72
2022/12/26 06:15:03;;;;;;;12.90;8.43;;;;;;;-145.18;100.00;46713.13;5010538;28;20034;-72
2022/12/26 06:17:28;;;;;;;12.17;8.40;;;;;;;-145.18;100.00;46711.19;5007606;28;20441;-72
2022/12/26 06:19:54;;;;;;;14.07;7.80;;;;;;;-145.18;100.00;46705.31;5017618;28;20034;-72
2022/12/26 06:22:19;;;;;;;14.77;8.43;;;;;;;-145.18;100.00;46719.00;5002451;28;20042;-72
2022/12/26 06:24:45;;;;;;;13.10;7.57;;;;;;;-145.18;100.00;46717.03;5003822;28;20480;-72
2022/12/26 06:27:10;;;;;;;10.47;6.70;;;;;;;-145.18;100.00;46707.28;5010316;28;20042;-73
2022/12/26 06:29:35;;;;;;;10.50;7.33;;;;;;;-145.18;100.00;46717.03;5010125;28;20109;-72
2022/12/26 06:32:02;;;;;;;10.80;6.50;;;;;;;-145.18;100.00;46724.84;5010435;28;20061;-72
2022/12/26 06:34:27;;;;;;;12.47;6.90;;;;;;;-145.18;100.00;46722.91;5010131;28;20045;-72
2022/12/26 06:36:54;;;;;;;11.23;6.60;;;;;;;-145.18;100.00;46709.22;4979437;28;20291;-72
2022/12/26 06:39:20;;;;;;;10.20;6.70;;;;;;;-145.18;100.00;46719.00;5013969;28;20442;-72
2022/12/26 06:41:45;;;;;;;9.03;6.10;;;;;;;-145.18;100.00;46715.09;5013868;28;20310;-73
2022/12/26 06:44:10;;;;;;;10.03;5.60;;;;;;;-145.18;100.00;46719.00;4980085;28;20041;-72
2022/12/26 06:46:36;;;;;;;8.10;4.70;;;;;;;-145.18;100.00;46724.84;5013293;28;20452;-72
2022/12/26 06:49:01;;;;;;;9.47;6.37;;;;;;;-145.18;100.00;46719.00;5014074;28;20118;-72
2022/12/26 06:51:29;;;;;;;10.20;4.80;;;;;;;-145.18;100.00;46720.94;5008978;28;20046;-72
2022/12/26 06:53:55;;;;;;;10.83;4.73;;;;;;;-145.18;100.00;46722.91;5008466;28;20113;-72
2022/12/26 06:56:24;;;;;;;9.13;5.17;;;;;;;-145.18;100.00;46720.94;5009035;28;20374;-72
2022/12/26 06:58:57;;;;;;;7.87;5.07;;;;;;;-145.18;100.00;46722.91;5007736;28;20190;-72
2022/12/26 07:01:23;;;;;;;9.60;4.73;;;;;;;-145.18;100.00;46717.03;5013469;28;20279;-72
2022/12/26 07:03:51;;;;;;;9.13;5.20;;;;;;;-145.18;100.00;46722.91;5012507;28;20119;-72
2022/12/26 07:06:25;;;;;;;10.93;5.57;;;;;;;-145.18;100.00;46719.00;5013132;28;20345;-72
2022/12/26 07:08:53;;;;;;;11.00;5.50;;;;;;;-145.18;100.00;46720.94;4996894;28;20355;-72
2022/12/26 07:11:21;;;;;;;11.50;5.23;;;;;;;-145.18;100.00;46722.91;5013301;28;20318;-72
2022/12/26 07:13:46;;;;;;;11.27;5.83;;;;;;;-145.18;100.00;46720.94;5012755;28;20267;-72
2022/12/26 07:16:12;;;;;;;9.60;5.30;;;;;;;-145.18;100.00;46722.91;5013160;28;20744;-72
2022/12/26 07:18:38;;;;;;;10.80;4.83;;;;;;;-145.18;100.00;46724.84;5010697;28;20089;-72
2022/12/26 07:21:07;;;;;;;9.70;5.20;;;;;;;-145.18;100.00;46720.94;5012782;28;20022;-72
2022/12/26 07:23:33;;;;;;;11.27;5.20;;;;;;;-145.18;100.00;46726.81;5012332;28;20038;-72
2022/12/26 07:25:59;;;;;;;6.67;4.97;;;;;;;-145.18;100.00;46724.84;5010749;28;20294;-72
2022/12/26 07:28:26;;;;;;;8.10;4.40;;;;;;;-145.18;100.00;46724.84;5012352;28;20042;-72
2022/12/26 07:30:51;;;;;;;10.33;4.23;;;;;;;-145.18;100.00;46724.84;5011631;28;20280;-72
2022/12/26 07:33:17;;;;;;;8.40;4.67;;;;;;;-145.18;100.00;46720.94;4990888;28;20381;-72
2022/12/26 07:35:43;;;;;;;8.53;4.50;;;;;;;-145.18;100.00;46719.00;5007861;28;20501;-72
2022/12/26 07:38:10;;;;;;;7.63;3.80;;;;;;;-145.18;100.00;46719.00;5009559;28;20041;-72
2022/12/26 07:40:35;;;;;;;12.07;4.70;;;;;;;-145.18;100.00;46724.84;5007100;28;20840;-72
2022/12/26 07:43:01;;;;;;;9.30;3.37;;;;;;;-145.18;100.00;46722.91;5009043;28;20370;-72
2022/12/26 07:45:26;;;;;;;10.13;3.10;;;;;;;-145.18;100.00;46724.84;5005422;28;20033;-72
2022/12/26 07:47:55;;;;;;;8.53;3.43;;;;;;;-145.18;100.00;46722.91;5006695;28;20088;-72
2022/12/26 07:50:22;;;;;;;6.10;3.27;;;;;;;-145.18;100.00;46722.91;5012817;28;20038;-72
2022/12/26 07:52:47;;;;;;;8.17;3.20;;;;;;;-145.18;100.00;46732.66;4993847;28;20046;-72
2022/12/26 07:55:12;;;;;;;11.70;3.47;;;;;;;-145.18;100.00;46728.75;5005120;28;20831;-72
2022/12/26 07:57:38;;;;;;;9.23;3.40;;;;;;;-145.18;100.00;46732.66;5004988;28;20121;-72
2022/12/26 08:00:04;;;;;;;11.60;3.50;;;;;;;-145.18;100.00;46734.63;5002137;28;20080;-72
2022/12/26 08:02:29;;;;;;;9.73;3.00;;;;;;;-145.18;100.00;46728.75;5003643;28;20057;-72
2022/12/26 08:04:55;;;;;;;8.13;3.47;;;;;;;-145.18;100.00;46734.63;5006471;28;20058;-72
2022/12/26 08:07:21;;;;;;;12.50;3.20;;;;;;;-145.18;100.00;46738.53;5009210;28;20041;-73
2022/12/26 08:09:46;;;;;;;10.83;3.33;;;;;;;-145.18;100.00;46728.75;5012159;28;20042;-72
2022/12/26 08:12:12;;;;;;;7.93;3.90;;;;;;;-145.18;100.00;46736.56;5012106;28;20331;-72
2022/12/26 08:14:38;;;;;;;12.90;3.40;;;;;;;-145.18;100.00;46732.66;5011668;28;20026;-73
2022/12/26 08:17:03;;;;;;;9.03;3.57;;;;;;;-145.18;100.00;46736.56;5011072;28;20029;-73
2022/12/26 08:19:28;;;;;;;11.07;3.80;;;;;;;-145.18;100.00;46728.75;5011576;28;20050;-72
2022/12/26 08:21:54;;;;;;;9.17;3.23;;;;;;;-145.18;100.00;46732.66;5009134;28;20112;-72
2022/12/26 08:24:19;;;;;;;8.87;3.17;;;;;;;-145.18;100.00;46732.66;5013849;28;20034;-72
2022/12/26 08:26:45;;;;;;;12.30;3.50;;;;;;;-145.18;100.00;46734.63;5011725;28;20034;-73
2022/12/26 08:29:10;;;;;;;10.47;2.70;;;;;;;-145.18;100.00;46732.66;5026792;28;20036;-72
2022/12/26 08:31:36;;;;;;;8.90;3.00;;;;;;;-145.18;100.00;46732.66;5008435;28;20034;-72
2022/12/26 08:34:01;;;;;;;10.37;2.37;;;;;;;-145.18;100.00;46736.56;5012277;28;20092;-72
2022/12/26 08:36:27;;;;;;;7.20;2.90;;;;;;;-145.18;100.00;46736.56;5014978;28;20076;-72
2022/12/26 08:38:52;;;;;;;16.90;3.67;;;;;;;-145.18;100.00;46728.75;5011252;28;20370;-72
2022/12/26 08:41:18;;;;;;;10.77;2.87;;;;;;;-145.18;100.00;46738.53;5010396;28;20037;-72
2022/12/26 08:43:47;;;;;;;5.47;2.23;;;;;;;-145.18;100.00;46738.53;5004356;28;20057;-72
2022/12/26 08:46:13;;;;;;;8.73;1.97;;;;;;;-145.18;100.00;46736.56;5005292;28;20112;-72
2022/12/26 08:48:40;;;;;;;10.90;2.53;;;;;;;-145.18;100.00;46742.44;5004723;28;20120;-72
2022/12/26 08:51:15;;;;;;;6.67;1.87;;;;;;;-145.18;100.00;46740.47;5006325;28;20030;-72
2022/12/26 08:53:41;;;;;;;11.75;1.85;;;;;;;-145.18;100.00;46736.56;5008983;28;20057;-72
2022/12/26 08:56:10;;;;;;;7.20;2.00;;;;;;;-145.18;100.00;46740.47;5007662;28;20030;-72
2022/12/26 08:58:36;;;;;;;5.07;1.80;;;;;;;-145.18;100.00;46742.44;5003978;28;20018;-73
2022/12/26 09:01:07;;;;;;;3.30;1.97;;;;;;;-145.18;100.00;46742.44;5007250;28;20402;-73
2022/12/26 09:03:32;;;;;;;6.03;1.90;;;;;;;-145.18;100.00;46742.44;5005893;28;20085;-72
2022/12/26 09:06:01;;;;;;;8.57;1.80;;;;;;;-145.18;100.00;46748.28;5010754;28;20038;-72
2022/12/26 09:08:30;;;;;;;8.03;2.00;;;;;;;-145.18;100.00;46740.47;5000463;28;20392;-73
2022/12/26 09:11:04;;;;;;;9.97;2.30;;;;;;;-145.18;100.00;46738.53;5010977;28;20025;-72
2022/12/26 09:13:30;;;;;;;8.37;1.87;;;;;;;-145.18;100.00;46740.47;4993585;28;20033;-73
2022/12/26 09:16:06;;;;;;;6.00;2.27;;;;;;;-145.18;100.00;46740.47;5010227;28;20140;-72
2022/12/26 09:18:31;;;;;;;8.50;2.22;;;;;;;-145.18;100.00;46736.56;5011212;28;20034;-73
2022/12/26 09:21:02;;;;;;;10.50;1.97;;;;;;;-145.18;100.00;46734.63;5000940;28;20065;-72
2022/12/26 09:23:28;;;;;;;6.23;1.90;;;;;;;-145.18;100.00;46734.63;4992885;28;20383;-72
2022/12/26 09:25:54;;;;;;;5.37;1.70;;;;;;;-145.18;100.00;46734.63;5003260;28;20266;-72
2022/12/26 09:28:19;;;;;;;4.63;2.37;;;;;;;-145.18;100.00;46734.63;5002922;28;20041;-72
2022/12/26 09:30:45;;;;;;;9.90;2.37;;;;;;;-145.18;100.00;46728.75;5000245;28;20030;-73
2022/12/26 09:33:10;;;;;;;10.07;2.10;;;;;;;-145.18;100.00;46736.56;5006900;28;20042;-72
2022/12/26 09:35:39;;;;;;;5.97;1.40;;;;;;;-145.18;100.00;46724.84;5004739;28;20029;-72
2022/12/26 09:38:05;;;;;;;10.30;1.90;;;;;;;-145.18;100.00;46726.81;5007577;28;20030;-72
2022/12/26 09:40:45;;;;;;;8.20;1.97;;;;;;;-145.18;100.00;46726.81;4999979;28;20314;-72
2022/12/26 09:43:33;;;;;;;4.93;1.40;;;;;;;-145.18;100.00;46726.81;5001609;28;20088;-72
2022/12/26 09:46:11;;;;;;;10.83;2.50;;;;;;;-145.18;100.00;46722.91;5001657;28;20340;-72
2022/12/26 09:48:56;;;;;;;6.73;1.80;;;;;;;-145.18;100.00;46724.84;5000670;28;20295;-72
2022/12/26 09:51:23;;;;;;;6.97;1.27;;;;;;;-145.18;100.00;46720.94;5001457;28;20283;-72
2022/12/26 09:53:49;;;;;;;13.70;1.70;;;;;;;-145.18;100.00;46724.84;5002514;28;20275;-72
2022/12/26 09:56:17;;;;;;;13.90;2.03;;;;;;;-145.18;100.00;46722.91;5009074;28;20702;-72
2022/12/26 09:58:56;;;;;;;18.43;2.27;;;;;;;-145.18;100.00;46719.00;5008001;28;20033;-72
2022/12/26 10:01:27;;;;;;;19.07;3.83;;;;;;;-145.18;100.00;46722.91;5008573;28;20814;-72
2022/12/26 10:03:55;;;;;;;11.83;1.73;;;;;;;-145.18;100.00;46724.84;5007734;28;20287;-72
2022/12/26 10:06:51;;;;;;;16.13;1.60;;;;;;;-145.18;100.00;46722.91;5007702;28;20275;-72
2022/12/26 10:09:28;;;;;;;10.97;2.47;;;;;;;-145.18;100.00;46722.91;5007219;28;20370;-72
2022/12/26 10:12:28;;;;;;;11.80;3.27;;;;;;;-145.18;100.00;46722.91;5008902;28;20298;-72
2022/12/26 10:15:02;;;;;;;16.87;2.60;;;;;;;-145.18;100.00;46722.91;5009022;28;20334;-72
2022/12/26 10:17:41;;;;;;;12.73;2.30;;;;;;;-145.18;100.00;46722.91;5010162;28;20362;-72
2022/12/26 10:20:45;;;;;;;20.23;2.33;;;;;;;-145.18;100.00;46724.84;5009911;28;20274;-72
2022/12/26 10:23:38;;;;;;;13.13;2.53;;;;;;;-145.18;100.00;46722.91;5009567;28;20275;-72
2022/12/26 10:26:13;;;;;;;22.70;2.37;;;;;;;-145.18;100.00;46717.03;5001138;28;20556;-72
2022/12/26 10:28:53;;;;;;;6.57;1.53;;;;;;;-145.18;100.00;46722.91;4991976;28;20369;-72
2022/12/26 10:31:28;;;;;;;7.57;1.90;;;;;;;-145.18;100.00;46722.91;5009927;28;20837;-72
2022/12/26 10:34:03;;;;;;;14.25;2.60;;;;;;;-145.18;100.00;46720.94;5009638;28;20744;-72
2022/12/26 10:36:54;;;;;;;9.27;2.70;;;;;;;-145.18;100.00;46720.94;5009946;28;20033;-72
2022/12/26 10:39:44;;;;;;;10.63;2.27;;;;;;;-145.18;100.00;46719.00;5007826;28;20286;-72
2022/12/26 10:42:33;;;;;;;12.43;1.97;;;;;;;-145.18;100.00;46709.22;5009911;28;20347;-72
2022/12/26 10:44:59;;;;;;;6.87;1.90;;;;;;;-145.18;100.00;46697.50;5009244;28;20696;-72
2022/12/26 10:47:49;;;;;;;4.33;1.50;;;;;;;-145.18;100.00;46687.75;5009925;28;20310;-72
2022/12/26 10:50:33;;;;;;;9.43;1.63;;;;;;;-145.18;100.00;46674.06;5000291;28;20050;-72
2022/12/26 10:53:02;;;;;;;9.13;1.80;;;;;;;-145.18;100.00;46662.34;5009207;28;20329;-72
2022/12/26 10:55:31;;;;;;;11.93;2.90;;;;;;;-145.18;100.00;46627.19;5009973;28;20343;-72
2022/12/26 10:58:02;;;;;;;9.00;1.30;;;;;;;-145.18;100.00;46607.66;5009422;28;20325;-72
2022/12/26 11:00:28;;;;;;;14.57;2.03;;;;;;;-145.18;100.00;46638.91;5009925;28;20275;-72
2022/12/26 11:03:20;;;;;;;6.43;1.20;;;;;;;-145.18;100.00;46597.88;5009063;28;20267;-72
2022/12/26 11:05:51;;;;;;;8.83;1.30;;;;;;;-145.18;100.00;46597.88;5005691;28;20040;-72
2022/12/26 11:08:22;;;;;;;14.60;1.93;;;;;;;-145.18;100.00;46603.75;4990221;28;20299;-72
2022/12/26 11:11:12;;;;;;;9.20;1.20;;;;;;;-145.18;100.00;46597.88;5003320;28;20279;-72
2022/12/26 11:13:45;;;;;;;7.13;1.30;;;;;;;-145.18;100.00;46601.78;4991190;28;20325;-72
2022/12/26 11:16:10;;;;;;;13.00;1.63;;;;;;;-145.18;100.00;46611.56;5009671;28;20291;-72
2022/12/26 11:18:50;;;;;;;11.23;2.47;;;;;;;-145.18;100.00;46617.41;5009417;28;20358;-72
2022/12/26 11:21:16;;;;;;;7.97;1.50;;;;;;;-145.18;100.00;46627.19;5009820;28;20022;-72
2022/12/26 11:23:41;;;;;;;13.27;2.40;;;;;;;-145.18;100.00;46627.19;5012579;28;20282;-72
2022/12/26 11:26:20;;;;;;;13.60;1.70;;;;;;;-145.18;100.00;46633.06;5012571;28;20038;-72
2022/12/26 11:28:46;;;;;;;11.73;1.67;;;;;;;-145.18;100.00;46625.22;5012829;28;20052;-72
2022/12/26 11:31:30;;;;;;;14.53;2.03;;;;;;;-145.18;100.00;46629.13;5012952;28;21067;-72
2022/12/26 11:33:59;;;;;;;9.63;1.37;;;;;;;-145.18;100.00;46627.19;5006870;28;20041;-72
2022/12/26 11:36:27;;;;;;;9.40;1.80;;;;;;;-145.18;100.00;46635.00;5012858;28;20794;-72
2022/12/26 11:38:57;;;;;;;10.43;2.17;;;;;;;-145.18;100.00;46646.72;5011890;28;20275;-72
2022/12/26 11:41:31;;;;;;;8.00;1.83;;;;;;;-145.18;100.00;46642.81;5013106;28;20271;-72
2022/12/26 11:44:09;;;;;;;6.97;2.13;;;;;;;-145.18;100.00;46644.78;5012433;28;20352;-72
2022/12/26 11:46:41;;;;;;;7.87;1.57;;;;;;;-145.18;100.00;46658.44;5012552;28;20295;-72
2022/12/26 11:49:25;;;;;;;7.67;1.40;;;;;;;-145.18;100.00;46660.41;5010219;28;20353;-72
2022/12/26 11:51:51;;;;;;;12.00;2.40;;;;;;;-145.18;100.00;46656.50;5006549;28;20283;-72
2022/12/26 11:54:47;;;;;;;9.57;1.50;;;;;;;-145.18;100.00;46664.31;5009451;28;20263;-72
2022/12/26 11:57:19;;;;;;;12.50;2.03;;;;;;;-145.18;100.00;46648.69;5012282;28;20632;-72
2022/12/26 11:59:46;;;;;;;18.37;2.43;;;;;;;-145.18;100.00;46656.50;5011637;28;20266;-72
2022/12/26 12:02:15;;;;;;;15.83;2.10;;;;;;;-145.18;100.00;46654.53;5011652;28;20787;-72
2022/12/26 12:04:40;;;;;;;12.13;1.37;;;;;;;-145.18;100.00;46668.22;5011862;28;20287;-72
2022/12/26 12:07:24;;;;;;;10.67;1.60;;;;;;;-145.18;100.00;46670.16;5012043;28;20286;-72
2022/12/26 12:10:05;;;;;;;6.63;1.30;;;;;;;-145.18;100.00;46691.66;5005836;28;20388;-72
2022/12/26 12:12:42;;;;;;;8.70;1.70;;;;;;;-145.18;100.00;46703.38;5009653;28;20291;-72
2022/12/26 12:15:24;;;;;;;11.57;2.00;;;;;;;-145.18;100.00;46703.38;5012076;28;20251;-72
2022/12/26 12:18:10;;;;;;;8.93;1.47;;;;;;;-145.18;100.00;46697.50;5011834;28;20621;-72
2022/12/26 12:20:57;;;;;;;12.47;1.57;;;;;;;-145.18;100.00;46719.00;5011580;28;20287;-72
2022/12/26 12:23:37;;;;;;;11.17;1.20;;;;;;;-145.18;100.00;46746.34;5011915;28;20267;-72
2022/12/26 12:26:13;;;;;;;3.93;1.13;;;;;;;-145.18;100.00;46730.72;5011586;28;20405;-71
2022/12/26 12:28:50;;;;;;;;;;;;;;;-145.18;100.00;46756.09;5011822;28;20370;-72
2022/12/26 12:31:21;;;;;;;21.10;2.25;;;;;;;-145.18;100.00;46781.50;5012373;28;19924;-72
2022/12/26 12:34:25;;;;;;;16.73;3.33;;;;;;;-145.18;100.00;46773.69;5010537;28;20045;-72
2022/12/26 12:37:05;;;;;;;6.03;1.20;;;;;;;-145.18;100.00;46859.63;5011909;28;20260;-72
2022/12/26 12:39:55;;;;;;;7.43;1.33;;;;;;;-145.18;100.00;46898.72;5011794;28;20263;-72
2022/12/26 12:42:26;;;;;;;9.83;1.30;;;;;;;-145.18;100.00;46894.81;5011886;28;20365;-72
2022/12/26 12:45:06;;;;;;;1.80;0.63;;;;;;;-145.18;100.00;46888.94;5002869;28;20758;-72
2022/12/26 12:47:46;;;;;;;6.27;1.00;;;;;;;-145.18;100.00;46908.47;5002430;28;20259;-72
2022/12/26 12:50:53;;;;;;;7.40;1.47;;;;;;;-145.18;100.00;46881.13;5002247;28;20345;-72
2022/12/26 12:53:58;;;;;;;6.88;1.15;;;;;;;-145.18;100.00;46847.91;5001583;28;20295;-72
2022/12/26 12:56:39;;;;;;;10.10;1.30;;;;;;;-145.18;100.00;46826.44;5002210;28;20030;-72
2022/12/26 12:59:15;;;;;;;6.87;1.00;;;;;;;-145.18;100.00;46812.75;5000682;28;20427;-72
2022/12/26 13:01:48;;;;;;;4.63;1.37;;;;;;;-145.18;100.00;46779.56;4991245;28;20260;-72
2022/12/26 13:04:23;;;;;;;7.77;1.40;;;;;;;-145.18;100.00;46769.78;4991473;28;20378;-72
2022/12/26 13:06:52;;;;;;;6.57;1.70;;;;;;;-145.18;100.00;46760.00;5007828;28;20286;-72
2022/12/26 13:09:21;;;;;;;5.53;1.07;;;;;;;-145.18;100.00;46793.22;5010360;28;20038;-71
2022/12/26 13:11:52;;;;;;;13.83;1.53;;;;;;;-145.18;100.00;46810.81;5011035;28;20287;-72
2022/12/26 13:14:40;;;;;;;2.03;0.60;;;;;;;-145.18;100.00;46857.69;5010682;28;20341;-72
2022/12/26 13:17:16;;;;;;;5.80;1.40;;;;;;;-145.18;100.00;46849.88;5011049;28;20310;-71
2022/12/26 13:20:04;;;;;;;6.07;1.13;;;;;;;-145.18;100.00;46847.91;5010404;28;20295;-72
2022/12/26 13:25:25;;;;;;;7.00;1.17;;;;;;;-145.18;100.00;46869.41;5011163;28;20616;-71
2022/12/26 13:27:54;;;;;;;5.60;0.93;;;;;;;-145.18;100.00;46855.72;5010761;28;20285;-71
2022/12/26 13:30:20;;;;;;;6.50;1.20;;;;;;;-145.18;100.00;46865.50;5007702;28;20320;-71
2022/12/26 13:32:46;;;;;;;5.50;1.20;;;;;;;-145.18;100.00;46844.00;4991097;28;20430;-72